Terminal Aerodrome Forecast
Issued by NWS Newport/Morehead City, NC

Home | Current Version | Previous Version | Graphics & Text | Print | Product List | Glossary On
Versions: 1 2 3 4 5 6 7 8 9 10 11 12 13 14 15 16 17 18 19 20
000
FTUS42 KMHX 211339 AAB
TAFEWN
TAF AMD
KEWN 211339Z 2114/2212 VRB03KT 3SM BR BKN009
     FM211430 12005KT P6SM SCT040
     FM220800 00000KT 3SM BR SKC=

USA.gov is the U.S. government's official web portal to all federal, state and local government web resources and services.